• Join FlightAware (Why Join?)
  • Login
  • US Flag 
07:53PM EDT


 

Airport Tracker/Info


-or-


 

Live Flight TrackerFlight Track Log ✈ N618JB ✈ 07-Apr-2013 ✈ KPBI - KEWR

Flight Track Log - Related Links

Times and Time Zones

All times are in EDT time to prevent confusion due to time zone crossing. See the N618JB flight status page for this flight to view local times or setup timezone preferences in your user account.

Time Position Orientation Groundspeed Altitude Reporting Facility
EDT Latitude Longitude Course Direction KTS MPH feet Rate Location/Type
07:17AM 26.7242 -79.9569 55° Northeast 243 280 5,100  Level Miami Center
07:18AM 26.8520 -79.7935 55° Northeast  Level FlightAware Approximate
07:18AM 26.7861 -79.8936 42° Northeast 266 306 8,600  Level Miami Center
07:19AM 26.9215 -79.6922 55° Northeast  Level FlightAware Approximate
07:19AM 26.8461 -79.8253 45° Northeast 296 341 10,600  Level Miami Center
07:20AM 26.9872 -79.5871 55° Northeast  Level FlightAware Approximate
07:20AM 26.9019 -79.7475 51° Northeast 338 389 12,000  Level Miami Center
07:21AM 27.0444 -79.4983 56° Northeast  Level FlightAware Approximate
07:21AM 26.9986 -79.7150 17° North 353 406 14,200  Level Miami Center
07:22AM 27.0994 -79.4076 55° Northeast  Level FlightAware Approximate
07:22AM 27.1183 -79.6875 12° North 371 427 16,300  Level Miami Center
07:23AM 27.1555 -79.3178 55° Northeast  Level FlightAware Approximate
07:23AM 27.2253 -79.6619 12° North 393 452 18,200  Level Miami Center
07:24AM 27.3383 -79.6367 11° North 399 459 20,300 1,800 Climbing Miami Center
07:25AM 27.4433 -79.6111 12° North 413 475 21,900 1,680 Climbing Miami Center
07:26AM 27.5733 -79.5814 11° North 425 489 23,700 1,560 Climbing Miami Center
07:27AM 27.6928 -79.5539 12° North 431 496 25,100 1,260 Climbing Miami Center
07:28AM 27.8144 -79.5239 12° North 437 503 26,300 1,140 Climbing Miami Center
07:29AM 27.9256 -79.5006 11° North 443 510 27,400 900 Climbing Miami Center
07:30AM 28.0514 -79.4683 13° North 449 517 28,200 780 Climbing Miami Center
07:31AM 28.1836 -79.4383 11° North 462 532 29,000 1,080 Climbing Miami Center
07:32AM 28.3178 -79.4061 12° North 476 548 30,400 1,200 Climbing Miami Center
07:33AM 28.4497 -79.3758 11° North 476 548 31,500 1,080 Climbing Miami Center
07:34AM 28.5797 -79.3458 11° North 476 548 32,600 1,200 Climbing Miami Center
07:35AM 28.7053 -79.3131 13° North 469 540 33,900 1,200 Climbing Miami Center
07:36AM 28.8353 -79.2828 12° North 469 540 35,000 540 Climbing Miami Center
07:37AM 28.9611 -79.2522 12° North 464 534 35,000  Level Miami Center
07:38AM 29.0867 -79.2217 12° North 464 534 35,000  Level Miami Center
07:39AM 29.2186 -79.1889 12° North 469 540 35,000  Level Miami Center
07:40AM 29.3464 -79.1583 12° North 469 540 35,000  Level Miami Center
07:41AM 29.4803 -79.1350 North 469 540 35,000  Level Miami Center
07:42AM 29.6019 -79.0969 15° North 468 539 35,000  Level Miami Center
07:43AM 29.7336 -79.0708 10° North 463 533 35,000  Level Miami Center
07:45AM 29.9611 -79.0089 13° North 479 551 35,000  Level Jacksonville Center
07:46AM 30.0831 -78.9728 14° North 465 535 35,000  Level Jacksonville Center
07:47AM 30.2117 -78.9411 12° North 458 527 35,000  Level Jacksonville Center
07:48AM 30.3381 -78.9144 10° North 458 527 35,000  Level Jacksonville Center
07:49AM 30.4644 -78.8825 12° North 466 536 35,000  Level Jacksonville Center
07:50AM 30.5867 -78.8533 12° North 459 528 35,000  Level Jacksonville Center
07:51AM 30.7150 -78.8214 12° North 459 528 35,000  Level Jacksonville Center
07:52AM 30.8392 -78.7894 12° North 467 537 35,000  Level Jacksonville Center
07:53AM 30.9697 -78.7594 11° North 467 537 35,100  Climbing Jacksonville Center
07:54AM 31.0942 -78.7297 12° North 461 531 35,000 -60 Descending Jacksonville Center
07:55AM 31.2183 -78.6975 13° North 461 531 35,000  Level Jacksonville Center
07:56AM 31.3467 -78.6650 12° North 461 531 35,000  Level Jacksonville Center
07:57AM 31.4728 -78.6300 13° North 467 537 35,000  Level Jacksonville Center
07:58AM 31.5969 -78.6000 12° North 462 532 35,000  Level Jacksonville Center
07:59AM 31.7211 -78.5675 13° North 464 534 35,000  Level Jacksonville Center
08:00AM 31.8472 -78.5344 13° North 466 536 35,000  Level Jacksonville Center
08:01AM 31.9756 -78.5017 12° North 466 536 35,000  Level Jacksonville Center
08:02AM 32.0956 -78.4714 12° North 461 531 35,000  Level Jacksonville Center
08:03AM 32.2239 -78.4381 12° North 461 531 35,000  Level Jacksonville Center
08:04AM 32.3458 -78.4075 12° North 461 531 35,000  Level Jacksonville Center
08:05AM 32.4617 -78.3722 14° North 466 536 35,000  Level Jacksonville Center
08:06AM 32.5900 -78.3414 11° North 466 536 35,000  Level Jacksonville Center
08:07AM 32.7139 -78.3103 12° North 466 536 35,000  Level Jacksonville Center
08:08AM 32.8378 -78.2744 14° North 466 536 35,000  Level Jacksonville Center
08:10AM 33.1044 -78.2042 12° North 451 519 35,000  Level Washington Center
08:11AM 33.2386 -78.1708 12° North 451 519 35,000  Level Washington Center
08:12AM 33.3625 -78.1400 12° North 451 519 35,000  Level Washington Center
08:13AM 33.4861 -78.1089 12° North 456 525 35,000  Level Washington Center
08:14AM 33.6100 -78.0753 13° North 450 518 35,000  Level Washington Center
08:15AM 33.7336 -78.0414 13° North 450 518 35,000  Level Washington Center
08:16AM 33.8553 -78.0100 12° North 450 518 35,000  Level Washington Center
08:17AM 33.9811 -77.9736 13° North 450 518 35,000  Level Washington Center
08:18AM 34.1050 -77.9419 12° North 450 518 35,000  Level Washington Center
08:19AM 34.2289 -77.9053 14° North 450 518 35,000  Level Washington Center
08:20AM 34.3544 -77.8786 10° North 450 518 35,000  Level Washington Center
08:21AM 34.4756 -77.8744 North 444 511 35,000  Level Washington Center
08:22AM 34.6008 -77.8731 North 444 511 35,000  Level Washington Center
08:23AM 34.7197 -77.8711 North 439 505 35,000  Level Washington Center
08:24AM 34.8367 -77.8694 North 433 498 35,000  Level Washington Center
08:25AM 34.9578 -77.8653 North 433 498 35,000  Level Washington Center
08:26AM 35.0767 -77.8636 North 423 487 35,000  Level Washington Center
08:27AM 35.1997 -77.8619 North 423 487 35,100  Climbing Washington Center
08:28AM 35.3167 -77.8600 North 423 487 35,000 -60 Descending Washington Center
08:29AM 35.4336 -77.8583 North 423 487 35,000  Level Washington Center
08:30AM 35.5525 -77.8567 North 423 487 35,000  Level Washington Center
08:31AM 35.6736 -77.8550 North 423 487 35,100  Climbing Washington Center
08:32AM 35.7925 -77.8531 North 423 487 35,100 -60 Level Washington Center
08:33AM 35.9011 -77.8536 360° North 423 487 35,000 -60 Descending Washington Center
08:34AM 36.0200 -77.8519 North 423 487 35,000  Level Washington Center
08:35AM 36.1389 -77.8503 North 423 487 35,000  Level Washington Center
08:36AM 36.2558 -77.8483 North 423 487 35,000  Level Washington Center
08:37AM 36.3769 -77.8492 360° North 423 487 35,000  Level Washington Center
08:38AM 36.4917 -77.8450 North 417 480 35,000  Level Washington Center
08:39AM 36.6106 -77.8431 North 422 486 35,000  Level Washington Center
08:40AM 36.7317 -77.8414 North 422 486 35,000 480 Level Washington Center
08:41AM 36.8486 -77.8397 North 422 486 36,000 480 Climbing Washington Center
08:42AM 36.9675 -77.8378 North 422 486 36,000  Level Washington Center
08:43AM 37.0864 -77.8361 North 422 486 36,000  Level Washington Center
08:44AM 37.2075 -77.8344 North 422 486 36,000  Level Washington Center
08:45AM 37.3264 -77.8328 North 422 486 36,000  Level Washington Center
08:46AM 37.4456 -77.8206 North 422 486 36,000  Level Washington Center
08:47AM 37.5631 -77.7742 17° North 427 491 36,000  Level Washington Center
08:48AM 37.6750 -77.6986 28° Northeast 437 503 36,000  Level Washington Center
08:49AM 37.7811 -77.6017 36° Northeast 451 519 36,000  Level Washington Center
08:50AM 37.8847 -77.5044 37° Northeast 456 525 36,000  Level Washington Center
08:51AM 37.9883 -77.4097 36° Northeast 456 525 36,000 -240 Level Washington Center
08:52AM 38.1006 -77.3042 36° Northeast 456 525 35,600 -960 Descending Washington Center
08:53AM 38.2061 -77.2061 36° Northeast 456 525 34,100 -1,320 Descending Washington Center
08:54AM 38.3117 -77.1133 35° Northeast 456 525 33,000 -600 Descending Washington Center
08:55AM 38.4214 -77.0122 36° Northeast 467 537 33,000  Level Washington Center
08:56AM 38.5267 -76.9133 36° Northeast 467 537 33,000  Level Washington Center
08:57AM 38.6342 -76.8117 36° Northeast 467 537 33,000  Level Washington Center
08:58AM 38.7372 -76.7122 37° Northeast 472 543 33,000 -420 Level Washington Center
08:59AM 38.8361 -76.5964 42° Northeast 472 543 32,200 -900 Descending Washington Center
09:00AM 38.9372 -76.4831 41° Northeast 472 543 31,200 -1,020 Descending Washington Center
09:01AM 39.0358 -76.3692 42° Northeast 472 543 30,200 -960 Descending Washington Center
09:02AM 39.1367 -76.2525 42° Northeast 472 543 29,300 -1,140 Descending Washington Center
09:03AM 39.2267 -76.1436 43° Northeast 477 549 28,000 -1,200 Descending Washington Center
09:04AM 39.3253 -76.0317 41° Northeast 482 555 27,000 -1,800 Descending Washington Center
09:05AM 39.4236 -75.9139 43° Northeast 477 549 24,500 -2,100 Descending Washington Center
09:06AM 39.5175 -75.8014 43° Northeast 472 543 22,800 -1,620 Descending Washington Center
09:07AM 39.6072 -75.6939 43° Northeast 451 519 21,300 -1,560 Descending Washington Center
09:08AM 39.6989 -75.5861 42° Northeast 444 511 19,700 -1,740 Descending Washington Center
09:09AM 39.7844 -75.4808 43° Northeast 438 504 17,900 -1,800 Descending Washington Center
09:10AM 39.8675 -75.3806 43° Northeast 417 480 16,200 -1,740 Descending Washington Center
09:11AM 39.9528 -75.2803 42° Northeast 412 474 14,500 -1,680 Descending Washington Center
09:13AM 40.0478 -75.1383 42° Northeast  Level FlightAware Approximate
09:13AM 40.1000 -75.0833 42° Northeast 389 448 11,400  Level New York TRACON
09:14AM 40.1833 -75.0000 37° Northeast 348 400 10,200 -1,620 Descending New York TRACON
09:15AM 40.2500 -74.9167 44° Northeast 309 356 8,300 -1,200 Descending New York TRACON
09:16AM 40.3000 -74.8333 52° Northeast 302 348 7,900 -960 Descending New York TRACON
09:17AM 40.3333 -74.7333 66° East 304 350 6,400 -960 Descending New York TRACON
09:18AM 40.3667 -74.6500 62° Northeast 299 344 6,000 -240 Descending New York TRACON
09:19AM 40.4500 -74.6167 17° North 291 335 6,000  Level New York TRACON
09:20AM 40.5167 -74.6167 360° North 294 338 6,000  Level New York TRACON
09:21AM 40.5667 -74.6833 315° West 271 312 6,000  Level New York TRACON
09:22AM 40.6500 -74.6667 North 298 343 6,000 -360 Level New York TRACON
09:23AM 40.7167 -74.6000 37° Northeast 298 343 5,300 -540 Descending New York TRACON
09:24AM 40.7833 -74.5333 37° Northeast 296 341 5,000 -180 Descending New York TRACON
09:25AM 40.8333 -74.4833 37° Northeast 292 336 5,000  Level New York TRACON
09:26AM 40.8833 -74.3833 56° Northeast 293 337 5,000  Level New York TRACON
09:27AM 40.9333 -74.3000 52° Northeast 291 335 5,000 -420 Level New York TRACON
09:28AM 40.9500 -74.1833 79° East 286 329 4,200 -480 Descending New York TRACON
09:29AM 40.9500 -74.0833 90° East 272 313 4,000 -600 Descending New York TRACON
09:30AM 40.9000 -74.0500 153° Southeast 205 236 3,100 -540 Descending New York TRACON
09:31AM 40.8500 -74.0667 194° South 200 230 3,000 -300 Descending New York TRACON
09:32AM 40.8000 -74.1000 207° Southwest 170 196 2,500 -720 Descending New York TRACON
09:33AM 40.7667 -74.1167 201° Southwest 159 183 1,600 -900 Descending New York TRACON
09:34AM 40.7333 -74.1500 217° Southwest 128 147 700 -840 Descending New York TRACON
09:36AM 40.6925 -74.1687 196° South  Level Estimated
09:43AM 40.6925 -74.1687 196° South  Level Estimated